sensor_id;sensor_type;location;lat;lon;timestamp;pressure;altitude;pressure_sealevel;temperature;humidity
39301;BME280;25019;42.626;23.380;2022-12-20T00:01:20;96155.28;;;-2.04;100.00
39301;BME280;25019;42.626;23.380;2022-12-20T00:03:48;96255.75;;;-1.47;100.00
39301;BME280;25019;42.626;23.380;2022-12-20T00:06:15;96247.38;;;-1.51;100.00
39301;BME280;25019;42.626;23.380;2022-12-20T00:08:41;96253.16;;;-1.47;100.00
39301;BME280;25019;42.626;23.380;2022-12-20T00:11:08;96252.44;;;-1.49;100.00
39301;BME280;25019;42.626;23.380;2022-12-20T00:13:34;96255.56;;;-1.56;100.00
39301;BME280;25019;42.626;23.380;2022-12-20T00:16:04;96258.78;;;-1.63;100.00
39301;BME280;25019;42.626;23.380;2022-12-20T00:18:30;96253.59;;;-1.63;100.00
39301;BME280;25019;42.626;23.380;2022-12-20T00:21:00;96265.31;;;-1.58;100.00
39301;BME280;25019;42.626;23.380;2022-12-20T00:23:26;96270.06;;;-1.63;100.00
39301;BME280;25019;42.626;23.380;2022-12-20T00:26:00;96261.28;;;-1.62;100.00
39301;BME280;25019;42.626;23.380;2022-12-20T00:28:25;96257.03;;;-1.63;100.00
39301;BME280;25019;42.626;23.380;2022-12-20T00:30:54;96266.84;;;-1.67;100.00
39301;BME280;25019;42.626;23.380;2022-12-20T00:33:20;96254.34;;;-1.73;100.00
39301;BME280;25019;42.626;23.380;2022-12-20T00:35:46;96267.44;;;-1.63;100.00
39301;BME280;25019;42.626;23.380;2022-12-20T00:38:11;96200.63;;;-2.06;100.00
39301;BME280;25019;42.626;23.380;2022-12-20T00:40:37;96260.53;;;-1.74;100.00
39301;BME280;25019;42.626;23.380;2022-12-20T00:43:02;96259.94;;;-1.77;100.00
39301;BME280;25019;42.626;23.380;2022-12-20T00:45:29;96196.75;;;-2.12;100.00
39301;BME280;25019;42.626;23.380;2022-12-20T00:47:55;96256.06;;;-1.83;100.00
39301;BME280;25019;42.626;23.380;2022-12-20T00:50:21;96259.03;;;-1.88;100.00
39301;BME280;25019;42.626;23.380;2022-12-20T00:52:46;96235.69;;;-2.11;100.00
39301;BME280;25019;42.626;23.380;2022-12-20T00:55:12;96260.22;;;-1.92;100.00
39301;BME280;25019;42.626;23.380;2022-12-20T00:57:37;96263.22;;;-1.97;100.00
39301;BME280;25019;42.626;23.380;2022-12-20T01:00:04;96266.41;;;-2.04;100.00
39301;BME280;25019;42.626;23.380;2022-12-20T01:02:30;96252.44;;;-2.24;100.00
39301;BME280;25019;42.626;23.380;2022-12-20T01:04:55;96266.66;;;-2.07;100.00
39301;BME280;25019;42.626;23.380;2022-12-20T01:07:21;96234.19;;;-2.24;100.00
39301;BME280;25019;42.626;23.380;2022-12-20T01:09:49;96248.56;;;-2.09;100.00
39301;BME280;25019;42.626;23.380;2022-12-20T01:12:15;96263.78;;;-1.93;100.00
39301;BME280;25019;42.626;23.380;2022-12-20T01:14:41;96252.22;;;-2.00;100.00
39301;BME280;25019;42.626;23.380;2022-12-20T01:17:06;96256.78;;;-1.92;100.00
39301;BME280;25019;42.626;23.380;2022-12-20T01:19:32;96261.19;;;-1.93;100.00
39301;BME280;25019;42.626;23.380;2022-12-20T01:21:58;96248.19;;;-2.04;100.00
39301;BME280;25019;42.626;23.380;2022-12-20T01:24:23;96254.09;;;-2.02;100.00
39301;BME280;25019;42.626;23.380;2022-12-20T01:26:49;96230.72;;;-2.14;100.00
39301;BME280;25019;42.626;23.380;2022-12-20T01:29:14;96251.03;;;-2.07;100.00
39301;BME280;25019;42.626;23.380;2022-12-20T01:31:41;96225.06;;;-2.19;100.00
39301;BME280;25019;42.626;23.380;2022-12-20T01:34:07;96232.56;;;-2.04;100.00
39301;BME280;25019;42.626;23.380;2022-12-20T01:36:35;96213.25;;;-2.23;100.00
39301;BME280;25019;42.626;23.380;2022-12-20T01:39:08;96235.09;;;-2.14;100.00
39301;BME280;25019;42.626;23.380;2022-12-20T01:41:36;96231.94;;;-2.18;100.00
39301;BME280;25019;42.626;23.380;2022-12-20T01:44:05;96222.47;;;-2.19;100.00
39301;BME280;25019;42.626;23.380;2022-12-20T01:46:52;96225.69;;;-2.27;100.00
39301;BME280;25019;42.626;23.380;2022-12-20T01:49:31;96226.88;;;-2.31;100.00
39301;BME280;25019;42.626;23.380;2022-12-20T01:52:06;96220.13;;;-2.33;100.00
39301;BME280;25019;42.626;23.380;2022-12-20T01:57:10;96221.81;;;-2.44;100.00
39301;BME280;25019;42.626;23.380;2022-12-20T01:59:39;96216.31;;;-2.62;100.00
39301;BME280;25019;42.626;23.380;2022-12-20T02:02:08;96214.66;;;-2.63;100.00
39301;BME280;25019;42.626;23.380;2022-12-20T02:04:35;96200.00;;;-2.64;100.00
39301;BME280;25019;42.626;23.380;2022-12-20T02:07:01;96204.09;;;-2.61;100.00
39301;BME280;25019;42.626;23.380;2022-12-20T02:09:29;96202.72;;;-2.65;100.00
39301;BME280;25019;42.626;23.380;2022-12-20T02:12:11;96204.09;;;-2.61;100.00
39301;BME280;25019;42.626;23.380;2022-12-20T02:14:58;96201.06;;;-2.66;100.00
39301;BME280;25019;42.626;23.380;2022-12-20T02:17:55;96199.16;;;-2.64;100.00
39301;BME280;25019;42.626;23.380;2022-12-20T02:29:24;96202.22;;;-2.59;100.00
39301;BME280;25019;42.626;23.380;2022-12-20T02:34:26;96198.09;;;-2.62;100.00
39301;BME280;25019;42.626;23.380;2022-12-20T02:36:53;96200.94;;;-2.53;100.00
39301;BME280;25019;42.626;23.380;2022-12-20T02:39:20;96186.97;;;-2.52;100.00
39301;BME280;25019;42.626;23.380;2022-12-20T02:41:51;96177.75;;;-2.57;100.00
39301;BME280;25019;42.626;23.380;2022-12-20T02:44:23;96055.34;;;-3.32;100.00
39301;BME280;25019;42.626;23.380;2022-12-20T02:47:13;96065.38;;;-3.27;100.00
39301;BME280;25019;42.626;23.380;2022-12-20T02:49:43;96190.34;;;-2.41;100.00
39301;BME280;25019;42.626;23.380;2022-12-20T02:52:11;96185.25;;;-2.42;100.00
39301;BME280;25019;42.626;23.380;2022-12-20T02:54:38;96173.13;;;-2.53;100.00
39301;BME280;25019;42.626;23.380;2022-12-20T02:57:18;96188.34;;;-2.48;100.00
39301;BME280;25019;42.626;23.380;2022-12-20T03:00:01;96177.22;;;-2.50;100.00
39301;BME280;25019;42.626;23.380;2022-12-20T03:02:31;96185.41;;;-2.55;100.00
39301;BME280;25019;42.626;23.380;2022-12-20T03:05:16;96068.00;;;-3.38;100.00
39301;BME280;25019;42.626;23.380;2022-12-20T03:07:44;96181.56;;;-2.72;100.00
39301;BME280;25019;42.626;23.380;2022-12-20T03:10:10;96185.56;;;-2.68;100.00
39301;BME280;25019;42.626;23.380;2022-12-20T03:12:36;96178.75;;;-2.80;100.00
39301;BME280;25019;42.626;23.380;2022-12-20T03:15:01;96181.69;;;-2.85;100.00
39301;BME280;25019;42.626;23.380;2022-12-20T03:17:27;96088.78;;;-3.50;100.00
39301;BME280;25019;42.626;23.380;2022-12-20T03:19:53;96171.56;;;-2.99;100.00
39301;BME280;25019;42.626;23.380;2022-12-20T03:22:18;96170.25;;;-3.05;100.00
39301;BME280;25019;42.626;23.380;2022-12-20T03:24:44;96175.25;;;-3.13;100.00
39301;BME280;25019;42.626;23.380;2022-12-20T03:27:11;96170.50;;;-3.20;100.00
39301;BME280;25019;42.626;23.380;2022-12-20T03:29:37;96173.13;;;-3.20;100.00
39301;BME280;25019;42.626;23.380;2022-12-20T03:32:03;96168.84;;;-3.21;100.00
39301;BME280;25019;42.626;23.380;2022-12-20T03:34:29;96170.88;;;-3.24;100.00
39301;BME280;25019;42.626;23.380;2022-12-20T03:36:55;96170.63;;;-3.33;100.00
39301;BME280;25019;42.626;23.380;2022-12-20T03:39:20;96171.81;;;-3.37;100.00
39301;BME280;25019;42.626;23.380;2022-12-20T03:41:49;96163.31;;;-3.39;100.00
39301;BME280;25019;42.626;23.380;2022-12-20T03:44:16;96168.13;;;-3.34;100.00
39301;BME280;25019;42.626;23.380;2022-12-20T03:46:42;96164.38;;;-3.30;100.00
39301;BME280;25019;42.626;23.380;2022-12-20T03:49:08;96164.50;;;-3.32;100.00
39301;BME280;25019;42.626;23.380;2022-12-20T03:51:41;96143.47;;;-3.51;100.00
39301;BME280;25019;42.626;23.380;2022-12-20T03:54:07;96164.25;;;-3.40;100.00
39301;BME280;25019;42.626;23.380;2022-12-20T03:56:53;96094.34;;;-3.88;100.00
39301;BME280;25019;42.626;23.380;2022-12-20T03:59:20;96154.31;;;-3.46;100.00
39301;BME280;25019;42.626;23.380;2022-12-20T04:01:45;96095.75;;;-3.84;100.00
39301;BME280;25019;42.626;23.380;2022-12-20T04:04:12;96150.69;;;-3.43;100.00
39301;BME280;25019;42.626;23.380;2022-12-20T04:06:39;96152.94;;;-3.50;100.00
39301;BME280;25019;42.626;23.380;2022-12-20T04:09:05;96161.41;;;-3.48;100.00
39301;BME280;25019;42.626;23.380;2022-12-20T04:11:38;96149.84;;;-3.55;100.00
39301;BME280;25019;42.626;23.380;2022-12-20T04:14:08;96143.94;;;-3.57;100.00
39301;BME280;25019;42.626;23.380;2022-12-20T04:16:34;96022.19;;;-4.42;100.00
39301;BME280;25019;42.626;23.380;2022-12-20T04:19:01;96146.31;;;-3.54;100.00
39301;BME280;25019;42.626;23.380;2022-12-20T04:21:33;96127.28;;;-3.66;100.00
39301;BME280;25019;42.626;23.380;2022-12-20T04:24:00;96087.94;;;-3.96;100.00
39301;BME280;25019;42.626;23.380;2022-12-20T04:26:36;96099.63;;;-3.90;100.00
39301;BME280;25019;42.626;23.380;2022-12-20T04:29:02;96119.25;;;-3.74;100.00
39301;BME280;25019;42.626;23.380;2022-12-20T04:31:28;96139.06;;;-3.62;100.00
39301;BME280;25019;42.626;23.380;2022-12-20T04:33:54;96058.44;;;-4.17;100.00
39301;BME280;25019;42.626;23.380;2022-12-20T04:36:20;96142.88;;;-3.66;100.00
39301;BME280;25019;42.626;23.380;2022-12-20T04:38:48;96061.50;;;-4.24;100.00
39301;BME280;25019;42.626;23.380;2022-12-20T04:41:13;96140.84;;;-3.74;100.00
39301;BME280;25019;42.626;23.380;2022-12-20T04:43:53;96145.00;;;-3.71;100.00
39301;BME280;25019;42.626;23.380;2022-12-20T04:46:22;96064.56;;;-4.18;100.00
39301;BME280;25019;42.626;23.380;2022-12-20T04:48:48;96133.75;;;-3.72;100.00
39301;BME280;25019;42.626;23.380;2022-12-20T04:51:14;96050.88;;;-4.21;100.00
39301;BME280;25019;42.626;23.380;2022-12-20T04:53:41;96052.31;;;-4.16;100.00
39301;BME280;25019;42.626;23.380;2022-12-20T04:56:25;96129.19;;;-3.68;100.00
39301;BME280;25019;42.626;23.380;2022-12-20T04:58:54;96144.75;;;-3.68;100.00
39301;BME280;25019;42.626;23.380;2022-12-20T05:01:20;96054.06;;;-4.28;100.00
39301;BME280;25019;42.626;23.380;2022-12-20T05:03:49;96068.34;;;-4.23;100.00
39301;BME280;25019;42.626;23.380;2022-12-20T05:06:15;96141.44;;;-3.70;100.00
39301;BME280;25019;42.626;23.380;2022-12-20T05:08:41;96128.00;;;-3.76;100.00
39301;BME280;25019;42.626;23.380;2022-12-20T05:11:08;96061.16;;;-4.19;100.00
39301;BME280;25019;42.626;23.380;2022-12-20T05:13:34;96138.25;;;-3.85;100.00
39301;BME280;25019;42.626;23.380;2022-12-20T05:16:00;96051.44;;;-4.40;100.00
39301;BME280;25019;42.626;23.380;2022-12-20T05:18:29;96136.34;;;-3.95;100.00
39301;BME280;25019;42.626;23.380;2022-12-20T05:21:00;96134.19;;;-4.01;100.00
39301;BME280;25019;42.626;23.380;2022-12-20T05:23:47;96070.75;;;-4.44;100.00
39301;BME280;25019;42.626;23.380;2022-12-20T05:26:41;96145.59;;;-4.15;100.00
39301;BME280;25019;42.626;23.380;2022-12-20T05:29:07;96143.34;;;-4.19;100.00
39301;BME280;25019;42.626;23.380;2022-12-20T05:31:33;96138.13;;;-4.31;100.00
39301;BME280;25019;42.626;23.380;2022-12-20T05:34:00;96137.19;;;-4.30;100.00
39301;BME280;25019;42.626;23.380;2022-12-20T05:36:29;96064.06;;;-4.82;100.00
39301;BME280;25019;42.626;23.380;2022-12-20T05:38:56;96144.16;;;-4.30;100.00
39301;BME280;25019;42.626;23.380;2022-12-20T05:41:22;96062.88;;;-4.78;100.00
39301;BME280;25019;42.626;23.380;2022-12-20T05:43:50;96149.13;;;-4.27;100.00
39301;BME280;25019;42.626;23.380;2022-12-20T05:46:16;96147.84;;;-4.22;100.00
39301;BME280;25019;42.626;23.380;2022-12-20T05:48:52;96144.53;;;-4.24;100.00
39301;BME280;25019;42.626;23.380;2022-12-20T05:51:17;96145.81;;;-4.18;100.00
39301;BME280;25019;42.626;23.380;2022-12-20T05:54:05;96146.66;;;-4.17;100.00
39301;BME280;25019;42.626;23.380;2022-12-20T05:56:45;96150.91;;;-4.16;100.00
39301;BME280;25019;42.626;23.380;2022-12-20T05:59:11;96140.53;;;-4.16;100.00
39301;BME280;25019;42.626;23.380;2022-12-20T06:01:37;96149.63;;;-4.11;100.00
39301;BME280;25019;42.626;23.380;2022-12-20T06:04:03;96096.31;;;-4.51;100.00
39301;BME280;25019;42.626;23.380;2022-12-20T06:06:29;96018.91;;;-4.91;100.00
39301;BME280;25019;42.626;23.380;2022-12-20T06:08:55;96152.00;;;-4.08;100.00
39301;BME280;25019;42.626;23.380;2022-12-20T06:11:43;96148.53;;;-4.19;100.00
39301;BME280;25019;42.626;23.380;2022-12-20T06:14:12;96159.78;;;-4.19;100.00
39301;BME280;25019;42.626;23.380;2022-12-20T06:16:42;96155.13;;;-4.27;100.00
39301;BME280;25019;42.626;23.380;2022-12-20T06:19:09;96105.63;;;-4.59;100.00
39301;BME280;25019;42.626;23.380;2022-12-20T06:21:35;96154.75;;;-4.33;100.00
39301;BME280;25019;42.626;23.380;2022-12-20T06:24:01;96156.69;;;-4.24;100.00
39301;BME280;25019;42.626;23.380;2022-12-20T06:26:28;96163.75;;;-4.15;100.00
39301;BME280;25019;42.626;23.380;2022-12-20T06:29:01;96153.56;;;-4.05;100.00
39301;BME280;25019;42.626;23.380;2022-12-20T06:31:35;96147.44;;;-3.93;100.00
39301;BME280;25019;42.626;23.380;2022-12-20T06:34:00;96149.81;;;-3.89;100.00
39301;BME280;25019;42.626;23.380;2022-12-20T06:36:31;96155.34;;;-3.83;100.00
39301;BME280;25019;42.626;23.380;2022-12-20T06:38:56;96124.44;;;-3.86;100.00
39301;BME280;25019;42.626;23.380;2022-12-20T06:41:22;96155.28;;;-3.58;100.00
39301;BME280;25019;42.626;23.380;2022-12-20T06:43:49;96148.78;;;-3.53;100.00
39301;BME280;25019;42.626;23.380;2022-12-20T06:46:14;96153.88;;;-3.51;100.00
39301;BME280;25019;42.626;23.380;2022-12-20T06:48:40;96144.31;;;-3.39;100.00
39301;BME280;25019;42.626;23.380;2022-12-20T06:51:08;96111.22;;;-3.49;100.00
39301;BME280;25019;42.626;23.380;2022-12-20T06:53:33;96143.09;;;-3.24;100.00
39301;BME280;25019;42.626;23.380;2022-12-20T06:55:59;96130.00;;;-3.22;100.00
39301;BME280;25019;42.626;23.380;2022-12-20T06:58:25;96139.44;;;-3.10;100.00
39301;BME280;25019;42.626;23.380;2022-12-20T07:00:50;96139.06;;;-3.05;100.00
39301;BME280;25019;42.626;23.380;2022-12-20T07:03:16;96136.13;;;-3.01;100.00
39301;BME280;25019;42.626;23.380;2022-12-20T07:05:42;96132.19;;;-2.95;100.00
39301;BME280;25019;42.626;23.380;2022-12-20T07:08:07;96065.84;;;-3.33;100.00
39301;BME280;25019;42.626;23.380;2022-12-20T07:10:34;96134.31;;;-2.89;100.00
39301;BME280;25019;42.626;23.380;2022-12-20T07:13:00;95984.94;;;-3.72;100.00
39301;BME280;25019;42.626;23.380;2022-12-20T07:15:26;96120.38;;;-2.88;100.00
39301;BME280;25019;42.626;23.380;2022-12-20T07:17:52;96109.75;;;-2.96;100.00
39301;BME280;25019;42.626;23.380;2022-12-20T07:20:17;96117.78;;;-2.88;100.00
39301;BME280;25019;42.626;23.380;2022-12-20T07:22:43;96057.91;;;-3.20;100.00
39301;BME280;25019;42.626;23.380;2022-12-20T07:25:09;96115.47;;;-2.69;100.00
39301;BME280;25019;42.626;23.380;2022-12-20T07:27:35;96036.44;;;-3.22;100.00
39301;BME280;25019;42.626;23.380;2022-12-20T07:30:02;95970.53;;;-3.65;100.00
39301;BME280;25019;42.626;23.380;2022-12-20T07:32:29;96114.28;;;-2.65;100.00
39301;BME280;25019;42.626;23.380;2022-12-20T07:34:55;96103.19;;;-2.79;100.00
39301;BME280;25019;42.626;23.380;2022-12-20T07:37:20;96116.50;;;-2.61;100.00
39301;BME280;25019;42.626;23.380;2022-12-20T07:39:46;96106.03;;;-2.49;100.00
39301;BME280;25019;42.626;23.380;2022-12-20T07:42:12;96110.25;;;-2.37;100.00
39301;BME280;25019;42.626;23.380;2022-12-20T07:44:41;96106.63;;;-2.46;100.00
39301;BME280;25019;42.626;23.380;2022-12-20T07:47:07;96067.97;;;-2.83;100.00
39301;BME280;25019;42.626;23.380;2022-12-20T07:49:34;96110.94;;;-2.35;99.63
39301;BME280;25019;42.626;23.380;2022-12-20T07:52:01;96099.44;;;-2.32;98.62
39301;BME280;25019;42.626;23.380;2022-12-20T07:54:42;96114.50;;;-2.36;97.23
39301;BME280;25019;42.626;23.380;2022-12-20T07:57:17;96100.09;;;-2.40;97.89
39301;BME280;25019;42.626;23.380;2022-12-20T07:59:48;96103.25;;;-2.36;96.50
39301;BME280;25019;42.626;23.380;2022-12-20T08:02:54;96103.91;;;-2.23;97.78
39301;BME280;25019;42.626;23.380;2022-12-20T08:05:21;96087.66;;;-2.15;99.22
39301;BME280;25019;42.626;23.380;2022-12-20T08:07:47;96095.16;;;-2.01;99.08
39301;BME280;25019;42.626;23.380;2022-12-20T08:10:14;96003.38;;;-2.66;99.32
39301;BME280;25019;42.626;23.380;2022-12-20T08:12:42;96089.91;;;-2.11;99.31
39301;BME280;25019;42.626;23.380;2022-12-20T08:15:10;96082.94;;;-2.21;100.00
39301;BME280;25019;42.626;23.380;2022-12-20T08:17:35;96025.31;;;-2.59;100.00
39301;BME280;25019;42.626;23.380;2022-12-20T08:20:01;96080.34;;;-2.21;100.00
39301;BME280;25019;42.626;23.380;2022-12-20T08:22:26;96067.88;;;-2.28;100.00
39301;BME280;25019;42.626;23.380;2022-12-20T08:24:52;96093.63;;;-2.03;100.00
39301;BME280;25019;42.626;23.380;2022-12-20T08:27:17;96089.59;;;-2.07;99.22
39301;BME280;25019;42.626;23.380;2022-12-20T08:29:43;96096.34;;;-2.05;99.00
39301;BME280;25019;42.626;23.380;2022-12-20T08:32:09;96091.16;;;-2.05;98.03
39301;BME280;25019;42.626;23.380;2022-12-20T08:34:36;96082.44;;;-1.94;97.70
39301;BME280;25019;42.626;23.380;2022-12-20T08:37:02;96084.28;;;-1.85;96.82
39301;BME280;25019;42.626;23.380;2022-12-20T08:39:27;96078.22;;;-1.85;97.42
39301;BME280;25019;42.626;23.380;2022-12-20T08:41:53;96070.38;;;-1.95;97.23
39301;BME280;25019;42.626;23.380;2022-12-20T08:44:18;96078.53;;;-1.78;96.48
39301;BME280;25019;42.626;23.380;2022-12-20T08:46:44;96017.56;;;-2.07;96.29
39301;BME280;25019;42.626;23.380;2022-12-20T08:49:10;96061.94;;;-1.77;97.00
39301;BME280;25019;42.626;23.380;2022-12-20T08:51:35;96071.28;;;-1.75;95.32
39301;BME280;25019;42.626;23.380;2022-12-20T08:54:01;96003.41;;;-2.14;96.14
39301;BME280;25019;42.626;23.380;2022-12-20T08:56:27;96076.25;;;-1.72;97.30
39301;BME280;25019;42.626;23.380;2022-12-20T08:58:53;96061.44;;;-1.71;96.98
39301;BME280;25019;42.626;23.380;2022-12-20T09:01:19;96079.47;;;-1.48;96.99
39301;BME280;25019;42.626;23.380;2022-12-20T09:03:51;96068.00;;;-1.36;97.34
39301;BME280;25019;42.626;23.380;2022-12-20T09:06:19;96072.50;;;-1.48;96.57
39301;BME280;25019;42.626;23.380;2022-12-20T09:08:45;96065.13;;;-1.43;95.33
39301;BME280;25019;42.626;23.380;2022-12-20T09:11:20;96054.72;;;-1.33;94.70
39301;BME280;25019;42.626;23.380;2022-12-20T09:13:48;96058.00;;;-1.31;95.22
39301;BME280;25019;42.626;23.380;2022-12-20T09:16:17;96047.25;;;-1.47;93.73
39301;BME280;25019;42.626;23.380;2022-12-20T09:18:43;95969.41;;;-1.82;93.71
39301;BME280;25019;42.626;23.380;2022-12-20T09:21:09;96050.88;;;-1.29;93.47
39301;BME280;25019;42.626;23.380;2022-12-20T09:23:36;95985.63;;;-1.68;92.61
39301;BME280;25019;42.626;23.380;2022-12-20T09:26:07;96034.41;;;-1.19;92.68
39301;BME280;25019;42.626;23.380;2022-12-20T09:28:35;96000.53;;;-1.29;93.19
39301;BME280;25019;42.626;23.380;2022-12-20T09:31:02;96024.00;;;-1.10;91.33
39301;BME280;25019;42.626;23.380;2022-12-20T09:33:29;96017.72;;;-0.97;91.33
39301;BME280;25019;42.626;23.380;2022-12-20T09:35:55;96017.97;;;-1.00;92.13
39301;BME280;25019;42.626;23.380;2022-12-20T09:38:21;96002.72;;;-1.25;90.82
39301;BME280;25019;42.626;23.380;2022-12-20T09:40:50;96016.19;;;-1.10;91.19
39301;BME280;25019;42.626;23.380;2022-12-20T09:43:16;96021.28;;;-1.08;90.50
39301;BME280;25019;42.626;23.380;2022-12-20T09:45:44;95954.97;;;-1.45;90.23
39301;BME280;25019;42.626;23.380;2022-12-20T09:48:23;96003.44;;;-0.93;89.82
39301;BME280;25019;42.626;23.380;2022-12-20T09:54:20;96001.38;;;-0.99;86.62
39301;BME280;25019;42.626;23.380;2022-12-20T09:57:05;95997.28;;;-0.92;85.31
39301;BME280;25019;42.626;23.380;2022-12-20T09:59:36;95879.13;;;-1.42;84.25
39301;BME280;25019;42.626;23.380;2022-12-20T10:02:08;95906.38;;;-1.07;84.08
39301;BME280;25019;42.626;23.380;2022-12-20T10:04:35;95981.84;;;-0.46;81.94
39301;BME280;25019;42.626;23.380;2022-12-20T10:12:54;95963.50;;;-0.17;79.28
39301;BME280;25019;42.626;23.380;2022-12-20T10:15:40;95960.72;;;-0.05;78.51
39301;BME280;25019;42.626;23.380;2022-12-20T10:24:32;95934.66;;;0.13;74.90
39301;BME280;25019;42.626;23.380;2022-12-20T10:27:23;95932.22;;;0.29;73.52
39301;BME280;25019;42.626;23.380;2022-12-20T10:29:50;95916.47;;;0.39;72.77
39301;BME280;25019;42.626;23.380;2022-12-20T10:32:22;95910.78;;;0.44;73.15
39301;BME280;25019;42.626;23.380;2022-12-20T10:34:59;95906.53;;;0.43;72.62
39301;BME280;25019;42.626;23.380;2022-12-20T10:37:37;95900.50;;;0.61;72.32
39301;BME280;25019;42.626;23.380;2022-12-20T10:40:03;95894.81;;;0.65;71.34
39301;BME280;25019;42.626;23.380;2022-12-20T10:42:40;95826.31;;;0.25;68.81
39301;BME280;25019;42.626;23.380;2022-12-20T10:47:44;95806.31;;;0.34;68.30
39301;BME280;25019;42.626;23.380;2022-12-20T10:50:17;95866.06;;;0.83;68.56
39301;BME280;25019;42.626;23.380;2022-12-20T10:52:45;95864.47;;;0.91;68.45
39301;BME280;25019;42.626;23.380;2022-12-20T10:55:35;95867.47;;;0.96;65.70
39301;BME280;25019;42.626;23.380;2022-12-20T10:58:09;95848.28;;;1.13;65.96
39301;BME280;25019;42.626;23.380;2022-12-20T11:00:38;95856.22;;;1.30;66.08
39301;BME280;25019;42.626;23.380;2022-12-20T11:03:14;95851.25;;;1.45;64.28
39301;BME280;25019;42.626;23.380;2022-12-20T11:05:55;95853.00;;;1.36;62.91
39301;BME280;25019;42.626;23.380;2022-12-20T11:08:22;95850.66;;;1.25;62.19
39301;BME280;25019;42.626;23.380;2022-12-20T11:10:49;95842.69;;;1.34;62.19
39301;BME280;25019;42.626;23.380;2022-12-20T11:13:23;95842.34;;;1.29;62.74
39301;BME280;25019;42.626;23.380;2022-12-20T11:15:52;95840.38;;;1.31;62.56
39301;BME280;25019;42.626;23.380;2022-12-20T11:23:40;95839.72;;;1.29;62.83
39301;BME280;25019;42.626;23.380;2022-12-20T11:32:35;95813.84;;;1.61;62.35
39301;BME280;25019;42.626;23.380;2022-12-20T11:37:26;95808.25;;;1.99;61.42
39301;BME280;25019;42.626;23.380;2022-12-20T11:43:06;95803.34;;;2.04;60.99
39301;BME280;25019;42.626;23.380;2022-12-20T11:46:32;95796.25;;;1.88;61.45
39301;BME280;25019;42.626;23.380;2022-12-20T11:52:08;95787.28;;;1.90;58.91
39301;BME280;25019;42.626;23.380;2022-12-20T11:54:44;95785.50;;;1.99;57.49
39301;BME280;25019;42.626;23.380;2022-12-20T11:57:33;95784.19;;;1.95;56.58
39301;BME280;25019;42.626;23.380;2022-12-20T12:00:02;95790.25;;;2.04;56.86
39301;BME280;25019;42.626;23.380;2022-12-20T12:03:09;95781.56;;;2.12;56.17
39301;BME280;25019;42.626;23.380;2022-12-20T12:05:40;95777.66;;;2.16;56.18
39301;BME280;25019;42.626;23.380;2022-12-20T12:08:13;95749.31;;;2.03;55.51
39301;BME280;25019;42.626;23.380;2022-12-20T12:10:49;95728.47;;;1.85;55.36
39301;BME280;25019;42.626;23.380;2022-12-20T12:13:23;95766.38;;;2.15;55.64
39301;BME280;25019;42.626;23.380;2022-12-20T12:16:05;95750.97;;;2.20;55.86
39301;BME280;25019;42.626;23.380;2022-12-20T12:18:35;95765.41;;;2.33;55.77
39301;BME280;25019;42.626;23.380;2022-12-20T12:26:27;95766.56;;;2.30;54.31
39301;BME280;25019;42.626;23.380;2022-12-20T12:28:56;95763.75;;;2.32;54.58
39301;BME280;25019;42.626;23.380;2022-12-20T12:31:29;95747.69;;;2.35;54.54
39301;BME280;25019;42.626;23.380;2022-12-20T12:34:05;95766.22;;;2.50;53.91
39301;BME280;25019;42.626;23.380;2022-12-20T12:37:19;95764.59;;;2.57;54.08
39301;BME280;25019;42.626;23.380;2022-12-20T12:39:26;95764.25;;;2.60;53.91
39301;BME280;25019;42.626;23.380;2022-12-20T12:45:19;95762.78;;;2.66;53.55
39301;BME280;25019;42.626;23.380;2022-12-20T12:47:52;95759.00;;;2.68;52.61
39301;BME280;25019;42.626;23.380;2022-12-20T12:50:31;95699.69;;;2.34;53.02
39301;BME280;25019;42.626;23.380;2022-12-20T12:53:20;95753.59;;;2.70;52.72
39301;BME280;25019;42.626;23.380;2022-12-20T12:55:49;95760.47;;;2.63;52.98
39301;BME280;25019;42.626;23.380;2022-12-20T13:11:37;95746.34;;;2.80;55.46
39301;BME280;25019;42.626;23.380;2022-12-20T13:16:51;95750.94;;;2.87;53.99
39301;BME280;25019;42.626;23.380;2022-12-20T13:21:55;95735.84;;;3.05;52.33
39301;BME280;25019;42.626;23.380;2022-12-20T13:27:26;95738.75;;;3.10;52.56
39301;BME280;25019;42.626;23.380;2022-12-20T13:37:53;95739.59;;;3.03;51.43
39301;BME280;25019;42.626;23.380;2022-12-20T13:40:38;95741.22;;;3.04;52.08
39301;BME280;25019;42.626;23.380;2022-12-20T13:43:29;95737.47;;;3.06;51.00
39301;BME280;25019;42.626;23.380;2022-12-20T13:51:20;95737.03;;;2.86;52.03
39301;BME280;25019;42.626;23.380;2022-12-20T13:56:32;95729.47;;;2.66;52.20
39301;BME280;25019;42.626;23.380;2022-12-20T13:59:04;95675.28;;;2.17;52.97
39301;BME280;25019;42.626;23.380;2022-12-20T14:01:31;95730.16;;;2.52;52.98
39301;BME280;25019;42.626;23.380;2022-12-20T14:03:57;95671.69;;;2.10;53.39
39301;BME280;25019;42.626;23.380;2022-12-20T14:06:25;95715.56;;;2.33;53.19
39301;BME280;25019;42.626;23.380;2022-12-20T14:08:51;95723.09;;;2.28;53.61
39301;BME280;25019;42.626;23.380;2022-12-20T14:11:23;95724.25;;;2.17;53.61
39301;BME280;25019;42.626;23.380;2022-12-20T14:14:00;95703.44;;;2.07;53.80
39301;BME280;25019;42.626;23.380;2022-12-20T14:16:28;95713.94;;;2.07;54.45
39301;BME280;25019;42.626;23.380;2022-12-20T14:19:13;95710.81;;;1.95;54.38
39301;BME280;25019;42.626;23.380;2022-12-20T14:21:41;95700.47;;;1.85;54.24
39301;BME280;25019;42.626;23.380;2022-12-20T14:24:14;95708.66;;;1.82;54.75
39301;BME280;25019;42.626;23.380;2022-12-20T14:26:42;95707.34;;;1.78;54.78
39301;BME280;25019;42.626;23.380;2022-12-20T14:29:11;95712.06;;;1.66;55.94
39301;BME280;25019;42.626;23.380;2022-12-20T14:31:47;95711.06;;;1.59;56.69
39301;BME280;25019;42.626;23.380;2022-12-20T14:34:24;95710.38;;;1.48;57.79
39301;BME280;25019;42.626;23.380;2022-12-20T14:36:51;95713.28;;;1.37;59.06
39301;BME280;25019;42.626;23.380;2022-12-20T14:39:32;95705.44;;;1.37;59.47